sensor_id;sensor_type;location;lat;lon;timestamp;temperature;humidity
64209;DHT22;50527;52.414;13.226;2022-09-09T00:01:49;14.80;99.90
64209;DHT22;50527;52.414;13.226;2022-09-09T00:04:24;14.80;99.90
64209;DHT22;50527;52.414;13.226;2022-09-09T00:06:55;14.80;99.90
64209;DHT22;50527;52.414;13.226;2022-09-09T00:09:27;14.80;99.90
64209;DHT22;50527;52.414;13.226;2022-09-09T00:17:36;14.70;99.90
64209;DHT22;50527;52.414;13.226;2022-09-09T00:20:12;14.70;99.90
64209;DHT22;50527;52.414;13.226;2022-09-09T00:22:42;14.60;99.90
64209;DHT22;50527;52.414;13.226;2022-09-09T00:25:16;14.60;99.90
64209;DHT22;50527;52.414;13.226;2022-09-09T00:27:45;14.60;99.90
64209;DHT22;50527;52.414;13.226;2022-09-09T00:32:50;14.50;99.90
64209;DHT22;50527;52.414;13.226;2022-09-09T00:37:46;14.50;99.90
64209;DHT22;50527;52.414;13.226;2022-09-09T00:40:24;14.50;99.90
64209;DHT22;50527;52.414;13.226;2022-09-09T00:43:15;14.40;99.90
64209;DHT22;50527;52.414;13.226;2022-09-09T00:48:45;14.40;99.90
64209;DHT22;50527;52.414;13.226;2022-09-09T00:51:22;14.40;99.90
64209;DHT22;50527;52.414;13.226;2022-09-09T00:54:32;14.30;99.90
64209;DHT22;50527;52.414;13.226;2022-09-09T00:57:25;14.30;99.90
64209;DHT22;50527;52.414;13.226;2022-09-09T01:02:38;14.20;99.90
64209;DHT22;50527;52.414;13.226;2022-09-09T01:05:11;14.20;99.90
64209;DHT22;50527;52.414;13.226;2022-09-09T01:07:38;14.20;99.90
64209;DHT22;50527;52.414;13.226;2022-09-09T01:10:24;14.20;99.90
64209;DHT22;50527;52.414;13.226;2022-09-09T01:12:52;14.20;99.90
64209;DHT22;50527;52.414;13.226;2022-09-09T01:15:24;14.10;99.90
64209;DHT22;50527;52.414;13.226;2022-09-09T01:18:02;14.10;99.90
64209;DHT22;50527;52.414;13.226;2022-09-09T01:23:38;14.10;99.90
64209;DHT22;50527;52.414;13.226;2022-09-09T01:26:27;14.10;99.90
64209;DHT22;50527;52.414;13.226;2022-09-09T01:28:54;14.00;99.90
64209;DHT22;50527;52.414;13.226;2022-09-09T01:31:52;14.10;99.90
64209;DHT22;50527;52.414;13.226;2022-09-09T01:34:19;14.00;99.90
64209;DHT22;50527;52.414;13.226;2022-09-09T01:36:49;14.00;99.90
64209;DHT22;50527;52.414;13.226;2022-09-09T01:39:19;14.00;99.90
64209;DHT22;50527;52.414;13.226;2022-09-09T01:41:45;14.00;99.90
64209;DHT22;50527;52.414;13.226;2022-09-09T01:44:11;14.00;99.90
64209;DHT22;50527;52.414;13.226;2022-09-09T01:46:37;14.00;99.90
64209;DHT22;50527;52.414;13.226;2022-09-09T01:49:05;13.90;99.90
64209;DHT22;50527;52.414;13.226;2022-09-09T01:51:32;13.90;99.90
64209;DHT22;50527;52.414;13.226;2022-09-09T01:53:58;13.90;99.90
64209;DHT22;50527;52.414;13.226;2022-09-09T02:02:10;13.80;99.90
64209;DHT22;50527;52.414;13.226;2022-09-09T02:04:48;13.80;99.90
64209;DHT22;50527;52.414;13.226;2022-09-09T02:09:48;13.80;99.90
64209;DHT22;50527;52.414;13.226;2022-09-09T02:12:18;13.70;99.90
64209;DHT22;50527;52.414;13.226;2022-09-09T02:14:50;13.70;99.90
64209;DHT22;50527;52.414;13.226;2022-09-09T02:17:28;13.70;99.90
64209;DHT22;50527;52.414;13.226;2022-09-09T02:20:10;13.70;99.90
64209;DHT22;50527;52.414;13.226;2022-09-09T02:22:39;13.60;99.90
64209;DHT22;50527;52.414;13.226;2022-09-09T02:25:08;13.70;99.90
64209;DHT22;50527;52.414;13.226;2022-09-09T02:27:35;13.60;99.90
64209;DHT22;50527;52.414;13.226;2022-09-09T02:30:02;13.60;99.90
64209;DHT22;50527;52.414;13.226;2022-09-09T02:32:29;13.60;99.90
64209;DHT22;50527;52.414;13.226;2022-09-09T02:35:20;13.60;99.90
64209;DHT22;50527;52.414;13.226;2022-09-09T02:37:49;13.60;99.90
64209;DHT22;50527;52.414;13.226;2022-09-09T02:40:15;13.60;99.90
64209;DHT22;50527;52.414;13.226;2022-09-09T02:42:45;13.60;99.90
64209;DHT22;50527;52.414;13.226;2022-09-09T02:45:14;13.60;99.90
64209;DHT22;50527;52.414;13.226;2022-09-09T02:48:03;13.60;99.90
64209;DHT22;50527;52.414;13.226;2022-09-09T02:50:34;13.50;99.90
64209;DHT22;50527;52.414;13.226;2022-09-09T02:55:36;13.50;99.90
64209;DHT22;50527;52.414;13.226;2022-09-09T02:58:04;13.50;99.90
64209;DHT22;50527;52.414;13.226;2022-09-09T03:00:32;13.50;99.90
64209;DHT22;50527;52.414;13.226;2022-09-09T03:02:59;13.40;99.90
64209;DHT22;50527;52.414;13.226;2022-09-09T03:05:24;13.40;99.90
64209;DHT22;50527;52.414;13.226;2022-09-09T03:07:51;13.40;99.90
64209;DHT22;50527;52.414;13.226;2022-09-09T03:10:17;13.40;99.90
64209;DHT22;50527;52.414;13.226;2022-09-09T03:12:43;13.40;99.90
64209;DHT22;50527;52.414;13.226;2022-09-09T03:15:09;13.40;99.90
64209;DHT22;50527;52.414;13.226;2022-09-09T03:17:35;13.40;99.90
64209;DHT22;50527;52.414;13.226;2022-09-09T03:20:02;13.30;99.90
64209;DHT22;50527;52.414;13.226;2022-09-09T03:22:28;13.30;99.90
64209;DHT22;50527;52.414;13.226;2022-09-09T03:24:53;13.30;99.90
64209;DHT22;50527;52.414;13.226;2022-09-09T03:27:19;13.30;99.90
64209;DHT22;50527;52.414;13.226;2022-09-09T03:29:45;13.30;99.90
64209;DHT22;50527;52.414;13.226;2022-09-09T03:32:11;13.30;99.90
64209;DHT22;50527;52.414;13.226;2022-09-09T03:34:37;13.30;99.90
64209;DHT22;50527;52.414;13.226;2022-09-09T03:37:06;13.30;99.90
64209;DHT22;50527;52.414;13.226;2022-09-09T03:39:32;13.30;99.90
64209;DHT22;50527;52.414;13.226;2022-09-09T03:41:57;13.30;99.90
64209;DHT22;50527;52.414;13.226;2022-09-09T03:44:23;13.30;99.90
64209;DHT22;50527;52.414;13.226;2022-09-09T03:46:48;13.30;99.90
64209;DHT22;50527;52.414;13.226;2022-09-09T03:49:14;13.30;99.90
64209;DHT22;50527;52.414;13.226;2022-09-09T03:51:41;13.20;99.90
64209;DHT22;50527;52.414;13.226;2022-09-09T03:54:07;13.30;99.90
64209;DHT22;50527;52.414;13.226;2022-09-09T03:56:35;13.30;99.90
64209;DHT22;50527;52.414;13.226;2022-09-09T03:59:01;13.30;99.90
64209;DHT22;50527;52.414;13.226;2022-09-09T04:01:28;13.20;99.90
64209;DHT22;50527;52.414;13.226;2022-09-09T04:03:53;13.20;99.90
64209;DHT22;50527;52.414;13.226;2022-09-09T04:06:20;13.20;99.90
64209;DHT22;50527;52.414;13.226;2022-09-09T04:08:46;13.20;99.90
64209;DHT22;50527;52.414;13.226;2022-09-09T04:11:14;13.10;99.90
64209;DHT22;50527;52.414;13.226;2022-09-09T04:13:42;13.10;99.90
64209;DHT22;50527;52.414;13.226;2022-09-09T04:16:09;13.10;99.90
64209;DHT22;50527;52.414;13.226;2022-09-09T04:18:35;13.10;99.90
64209;DHT22;50527;52.414;13.226;2022-09-09T04:21:01;13.10;99.90
64209;DHT22;50527;52.414;13.226;2022-09-09T04:23:28;13.10;99.90
64209;DHT22;50527;52.414;13.226;2022-09-09T04:25:58;13.10;99.90
64209;DHT22;50527;52.414;13.226;2022-09-09T04:28:26;13.10;99.90
64209;DHT22;50527;52.414;13.226;2022-09-09T04:30:52;13.10;99.90
64209;DHT22;50527;52.414;13.226;2022-09-09T04:33:18;13.10;99.90
64209;DHT22;50527;52.414;13.226;2022-09-09T04:35:48;13.10;99.90
64209;DHT22;50527;52.414;13.226;2022-09-09T04:38:15;13.10;99.90
64209;DHT22;50527;52.414;13.226;2022-09-09T04:40:47;13.10;99.90
64209;DHT22;50527;52.414;13.226;2022-09-09T04:43:13;13.10;99.90
64209;DHT22;50527;52.414;13.226;2022-09-09T04:45:39;13.10;99.90
64209;DHT22;50527;52.414;13.226;2022-09-09T04:48:06;13.10;99.90
64209;DHT22;50527;52.414;13.226;2022-09-09T04:50:31;13.10;99.90
64209;DHT22;50527;52.414;13.226;2022-09-09T04:53:00;13.10;99.90
64209;DHT22;50527;52.414;13.226;2022-09-09T04:55:26;13.20;99.90
64209;DHT22;50527;52.414;13.226;2022-09-09T04:57:51;13.20;99.90
64209;DHT22;50527;52.414;13.226;2022-09-09T05:00:17;13.30;99.90
64209;DHT22;50527;52.414;13.226;2022-09-09T05:02:42;13.30;99.90
64209;DHT22;50527;52.414;13.226;2022-09-09T05:05:08;13.30;99.90
64209;DHT22;50527;52.414;13.226;2022-09-09T05:07:34;13.30;99.90
64209;DHT22;50527;52.414;13.226;2022-09-09T05:09:59;13.30;99.90
64209;DHT22;50527;52.414;13.226;2022-09-09T05:12:25;13.30;99.90
64209;DHT22;50527;52.414;13.226;2022-09-09T05:14:51;13.40;99.90
64209;DHT22;50527;52.414;13.226;2022-09-09T05:17:17;13.40;99.90
64209;DHT22;50527;52.414;13.226;2022-09-09T05:19:43;13.40;99.90
64209;DHT22;50527;52.414;13.226;2022-09-09T05:22:09;13.50;99.90
64209;DHT22;50527;52.414;13.226;2022-09-09T05:24:35;13.50;99.90
64209;DHT22;50527;52.414;13.226;2022-09-09T05:27:02;13.60;99.90
64209;DHT22;50527;52.414;13.226;2022-09-09T05:29:28;13.60;99.90
64209;DHT22;50527;52.414;13.226;2022-09-09T05:31:53;13.80;99.90
64209;DHT22;50527;52.414;13.226;2022-09-09T05:34:19;14.90;99.90
64209;DHT22;50527;52.414;13.226;2022-09-09T05:36:46;17.40;99.90
64209;DHT22;50527;52.414;13.226;2022-09-09T05:39:12;17.90;90.40
64209;DHT22;50527;52.414;13.226;2022-09-09T05:41:38;17.50;91.60
64209;DHT22;50527;52.414;13.226;2022-09-09T05:44:04;18.80;87.30
64209;DHT22;50527;52.414;13.226;2022-09-09T05:46:29;21.50;74.30
64209;DHT22;50527;52.414;13.226;2022-09-09T05:48:55;22.10;66.70
64209;DHT22;50527;52.414;13.226;2022-09-09T05:51:26;21.30;67.00
64209;DHT22;50527;52.414;13.226;2022-09-09T05:53:52;19.50;73.40
64209;DHT22;50527;52.414;13.226;2022-09-09T05:56:20;18.50;81.80
64209;DHT22;50527;52.414;13.226;2022-09-09T05:58:47;18.00;86.40
64209;DHT22;50527;52.414;13.226;2022-09-09T06:01:18;17.60;90.40
64209;DHT22;50527;52.414;13.226;2022-09-09T06:03:45;17.00;93.00
64209;DHT22;50527;52.414;13.226;2022-09-09T06:06:16;16.50;95.30
64209;DHT22;50527;52.414;13.226;2022-09-09T06:08:44;16.90;96.90
64209;DHT22;50527;52.414;13.226;2022-09-09T06:11:11;17.60;92.20
64209;DHT22;50527;52.414;13.226;2022-09-09T06:13:37;17.20;93.20
64209;DHT22;50527;52.414;13.226;2022-09-09T06:16:04;16.60;96.50
64209;DHT22;50527;52.414;13.226;2022-09-09T06:18:30;16.30;99.20
64209;DHT22;50527;52.414;13.226;2022-09-09T06:21:02;16.10;99.90
64209;DHT22;50527;52.414;13.226;2022-09-09T06:23:29;16.00;99.90
64209;DHT22;50527;52.414;13.226;2022-09-09T06:26:26;15.80;99.90
64209;DHT22;50527;52.414;13.226;2022-09-09T06:28:54;15.60;99.90
64209;DHT22;50527;52.414;13.226;2022-09-09T06:31:21;15.50;99.90
64209;DHT22;50527;52.414;13.226;2022-09-09T06:33:48;15.50;99.90
64209;DHT22;50527;52.414;13.226;2022-09-09T06:36:23;15.50;99.90
64209;DHT22;50527;52.414;13.226;2022-09-09T06:38:49;15.50;99.90
64209;DHT22;50527;52.414;13.226;2022-09-09T06:41:17;15.40;99.90
64209;DHT22;50527;52.414;13.226;2022-09-09T06:43:44;15.90;99.90
64209;DHT22;50527;52.414;13.226;2022-09-09T06:46:20;19.00;95.50
64209;DHT22;50527;52.414;13.226;2022-09-09T06:48:49;19.70;86.60
64209;DHT22;50527;52.414;13.226;2022-09-09T06:51:20;20.20;80.10
64209;DHT22;50527;52.414;13.226;2022-09-09T06:53:53;19.60;82.60
64209;DHT22;50527;52.414;13.226;2022-09-09T06:56:25;19.00;85.90
64209;DHT22;50527;52.414;13.226;2022-09-09T06:58:52;18.60;90.30
64209;DHT22;50527;52.414;13.226;2022-09-09T07:01:20;18.30;92.30
64209;DHT22;50527;52.414;13.226;2022-09-09T07:03:48;17.90;94.00
64209;DHT22;50527;52.414;13.226;2022-09-09T07:06:22;17.60;95.50
64209;DHT22;50527;52.414;13.226;2022-09-09T07:08:53;17.70;97.30
64209;DHT22;50527;52.414;13.226;2022-09-09T07:11:20;18.20;95.40
64209;DHT22;50527;52.414;13.226;2022-09-09T07:13:46;18.60;93.70
64209;DHT22;50527;52.414;13.226;2022-09-09T07:16:15;18.80;91.60
64209;DHT22;50527;52.414;13.226;2022-09-09T07:18:41;19.40;89.00
64209;DHT22;50527;52.414;13.226;2022-09-09T07:21:08;19.30;90.20
64209;DHT22;50527;52.414;13.226;2022-09-09T07:23:34;19.60;91.00
64209;DHT22;50527;52.414;13.226;2022-09-09T07:26:01;19.90;89.70
64209;DHT22;50527;52.414;13.226;2022-09-09T07:28:26;20.40;86.20
64209;DHT22;50527;52.414;13.226;2022-09-09T07:31:01;20.60;86.50
64209;DHT22;50527;52.414;13.226;2022-09-09T07:33:32;21.30;83.20
64209;DHT22;50527;52.414;13.226;2022-09-09T07:36:16;23.00;72.50
64209;DHT22;50527;52.414;13.226;2022-09-09T07:38:45;21.80;74.70
64209;DHT22;50527;52.414;13.226;2022-09-09T07:41:13;21.30;77.00
64209;DHT22;50527;52.414;13.226;2022-09-09T07:43:43;21.00;80.90
64209;DHT22;50527;52.414;13.226;2022-09-09T07:46:10;20.90;83.30
64209;DHT22;50527;52.414;13.226;2022-09-09T07:48:37;20.80;84.60
64209;DHT22;50527;52.414;13.226;2022-09-09T07:51:12;21.20;81.70
64209;DHT22;50527;52.414;13.226;2022-09-09T07:53:43;20.90;77.60
64209;DHT22;50527;52.414;13.226;2022-09-09T07:56:10;20.40;82.90
64209;DHT22;50527;52.414;13.226;2022-09-09T07:58:37;20.00;86.40
64209;DHT22;50527;52.414;13.226;2022-09-09T08:01:09;19.40;92.60
64209;DHT22;50527;52.414;13.226;2022-09-09T08:03:35;19.20;92.50
64209;DHT22;50527;52.414;13.226;2022-09-09T08:06:02;18.90;92.50
64209;DHT22;50527;52.414;13.226;2022-09-09T08:08:28;18.90;93.90
64209;DHT22;50527;52.414;13.226;2022-09-09T08:11:02;18.80;95.10
64209;DHT22;50527;52.414;13.226;2022-09-09T08:13:27;18.70;96.10
64209;DHT22;50527;52.414;13.226;2022-09-09T08:15:53;18.50;97.70
64209;DHT22;50527;52.414;13.226;2022-09-09T08:18:18;18.30;99.80
64209;DHT22;50527;52.414;13.226;2022-09-09T08:20:43;18.20;97.00
64209;DHT22;50527;52.414;13.226;2022-09-09T08:23:09;18.20;97.40
64209;DHT22;50527;52.414;13.226;2022-09-09T08:25:34;18.20;95.70
64209;DHT22;50527;52.414;13.226;2022-09-09T08:28:00;18.40;97.40
64209;DHT22;50527;52.414;13.226;2022-09-09T08:30:25;18.50;97.50
64209;DHT22;50527;52.414;13.226;2022-09-09T08:32:52;18.50;98.00
64209;DHT22;50527;52.414;13.226;2022-09-09T08:35:17;18.50;95.40
64209;DHT22;50527;52.414;13.226;2022-09-09T08:37:42;18.40;92.40
64209;DHT22;50527;52.414;13.226;2022-09-09T08:40:18;18.50;94.80
64209;DHT22;50527;52.414;13.226;2022-09-09T08:42:50;18.50;96.30
64209;DHT22;50527;52.414;13.226;2022-09-09T08:45:19;18.50;93.40
64209;DHT22;50527;52.414;13.226;2022-09-09T08:48:13;18.50;94.80
64209;DHT22;50527;52.414;13.226;2022-09-09T08:50:42;18.40;98.20
64209;DHT22;50527;52.414;13.226;2022-09-09T08:53:11;18.40;98.70
64209;DHT22;50527;52.414;13.226;2022-09-09T08:55:56;18.40;98.00
64209;DHT22;50527;52.414;13.226;2022-09-09T08:58:27;18.30;97.50
64209;DHT22;50527;52.414;13.226;2022-09-09T09:03:54;18.50;95.70
64209;DHT22;50527;52.414;13.226;2022-09-09T09:11:54;19.30;93.40
64209;DHT22;50527;52.414;13.226;2022-09-09T09:14:24;19.60;91.30
64209;DHT22;50527;52.414;13.226;2022-09-09T09:17:12;20.30;91.70
64209;DHT22;50527;52.414;13.226;2022-09-09T09:19:40;21.20;84.10
64209;DHT22;50527;52.414;13.226;2022-09-09T09:24:50;22.60;73.80
64209;DHT22;50527;52.414;13.226;2022-09-09T09:27:32;23.00;74.70
64209;DHT22;50527;52.414;13.226;2022-09-09T09:30:01;23.40;69.00
64209;DHT22;50527;52.414;13.226;2022-09-09T09:32:32;24.10;64.90
64209;DHT22;50527;52.414;13.226;2022-09-09T09:34:59;25.40;61.10
64209;DHT22;50527;52.414;13.226;2022-09-09T09:37:32;26.50;56.70
64209;DHT22;50527;52.414;13.226;2022-09-09T09:40:14;27.80;53.70
64209;DHT22;50527;52.414;13.226;2022-09-09T09:42:55;27.40;53.10
64209;DHT22;50527;52.414;13.226;2022-09-09T09:45:49;28.50;50.00
64209;DHT22;50527;52.414;13.226;2022-09-09T09:48:14;29.40;48.80
64209;DHT22;50527;52.414;13.226;2022-09-09T09:53:22;29.70;45.60
64209;DHT22;50527;52.414;13.226;2022-09-09T09:56:06;28.90;46.10
64209;DHT22;50527;52.414;13.226;2022-09-09T09:58:49;26.40;50.90
64209;DHT22;50527;52.414;13.226;2022-09-09T10:01:31;25.20;55.20
64209;DHT22;50527;52.414;13.226;2022-09-09T10:04:20;24.40;56.20
64209;DHT22;50527;52.414;13.226;2022-09-09T10:06:47;24.50;58.20
64209;DHT22;50527;52.414;13.226;2022-09-09T10:09:29;24.80;58.70
64209;DHT22;50527;52.414;13.226;2022-09-09T10:17:36;24.70;60.00
64209;DHT22;50527;52.414;13.226;2022-09-09T10:22:36;24.80;56.60
64209;DHT22;50527;52.414;13.226;2022-09-09T10:28:27;24.80;57.40
64209;DHT22;50527;52.414;13.226;2022-09-09T10:31:19;24.80;55.70
64209;DHT22;50527;52.414;13.226;2022-09-09T10:36:28;24.00;62.50
64209;DHT22;50527;52.414;13.226;2022-09-09T10:39:06;23.90;59.60
64209;DHT22;50527;52.414;13.226;2022-09-09T10:41:56;23.70;60.20
64209;DHT22;50527;52.414;13.226;2022-09-09T10:45:00;23.60;59.50
64209;DHT22;50527;52.414;13.226;2022-09-09T10:47:50;23.50;61.30
64209;DHT22;50527;52.414;13.226;2022-09-09T10:56:08;23.10;64.60
64209;DHT22;50527;52.414;13.226;2022-09-09T10:58:55;22.90;66.20
64209;DHT22;50527;52.414;13.226;2022-09-09T11:01:30;23.20;63.70
64209;DHT22;50527;52.414;13.226;2022-09-09T11:04:02;23.20;63.80
64209;DHT22;50527;52.414;13.226;2022-09-09T11:06:34;23.10;63.00
64209;DHT22;50527;52.414;13.226;2022-09-09T11:09:02;23.30;62.20
64209;DHT22;50527;52.414;13.226;2022-09-09T11:11:49;23.40;62.00
64209;DHT22;50527;52.414;13.226;2022-09-09T11:17:06;23.40;60.10
64209;DHT22;50527;52.414;13.226;2022-09-09T11:22:07;23.50;58.80
64209;DHT22;50527;52.414;13.226;2022-09-09T11:24:42;23.30;59.50
64209;DHT22;50527;52.414;13.226;2022-09-09T11:27:23;23.40;60.00
64209;DHT22;50527;52.414;13.226;2022-09-09T11:30:11;23.50;60.40
64209;DHT22;50527;52.414;13.226;2022-09-09T11:33:08;23.60;60.60
64209;DHT22;50527;52.414;13.226;2022-09-09T11:38:58;23.70;57.60
64209;DHT22;50527;52.414;13.226;2022-09-09T11:41:34;23.50;60.20
64209;DHT22;50527;52.414;13.226;2022-09-09T11:44:10;23.60;58.90
64209;DHT22;50527;52.414;13.226;2022-09-09T11:46:38;23.70;57.20
64209;DHT22;50527;52.414;13.226;2022-09-09T11:49:05;23.80;55.80
64209;DHT22;50527;52.414;13.226;2022-09-09T11:51:33;23.90;56.40
64209;DHT22;50527;52.414;13.226;2022-09-09T11:54:27;24.00;54.60
64209;DHT22;50527;52.414;13.226;2022-09-09T11:56:55;23.80;56.10
64209;DHT22;50527;52.414;13.226;2022-09-09T11:59:23;23.70;55.30
64209;DHT22;50527;52.414;13.226;2022-09-09T12:06:55;23.70;55.50
64209;DHT22;50527;52.414;13.226;2022-09-09T12:09:51;23.70;56.40
64209;DHT22;50527;52.414;13.226;2022-09-09T12:12:26;23.70;54.60
64209;DHT22;50527;52.414;13.226;2022-09-09T12:17:59;23.70;54.20
64209;DHT22;50527;52.414;13.226;2022-09-09T12:23:18;23.40;55.40
64209;DHT22;50527;52.414;13.226;2022-09-09T12:26:07;23.10;55.60
64209;DHT22;50527;52.414;13.226;2022-09-09T12:28:51;22.90;54.60
64209;DHT22;50527;52.414;13.226;2022-09-09T12:33:49;22.60;56.30
64209;DHT22;50527;52.414;13.226;2022-09-09T12:36:27;22.60;57.10
64209;DHT22;50527;52.414;13.226;2022-09-09T12:38:56;22.60;60.20
64209;DHT22;50527;52.414;13.226;2022-09-09T12:41:27;22.50;60.80
64209;DHT22;50527;52.414;13.226;2022-09-09T12:44:09;22.40;57.90
64209;DHT22;50527;52.414;13.226;2022-09-09T12:46:40;22.30;58.20
64209;DHT22;50527;52.414;13.226;2022-09-09T12:49:36;22.30;57.40
64209;DHT22;50527;52.414;13.226;2022-09-09T12:52:15;22.20;59.10
64209;DHT22;50527;52.414;13.226;2022-09-09T12:54:44;22.20;60.00
64209;DHT22;50527;52.414;13.226;2022-09-09T12:57:12;22.20;60.10
64209;DHT22;50527;52.414;13.226;2022-09-09T12:59:40;22.20;60.30
64209;DHT22;50527;52.414;13.226;2022-09-09T13:02:22;22.20;61.20
64209;DHT22;50527;52.414;13.226;2022-09-09T13:04:48;22.10;61.80
64209;DHT22;50527;52.414;13.226;2022-09-09T13:07:16;22.10;61.00
64209;DHT22;50527;52.414;13.226;2022-09-09T13:09:43;22.00;60.90
64209;DHT22;50527;52.414;13.226;2022-09-09T13:12:19;22.10;61.90
64209;DHT22;50527;52.414;13.226;2022-09-09T13:14:51;22.00;60.50
64209;DHT22;50527;52.414;13.226;2022-09-09T13:17:26;22.00;60.50
64209;DHT22;50527;52.414;13.226;2022-09-09T13:19:55;21.90;60.80
64209;DHT22;50527;52.414;13.226;2022-09-09T13:22:39;21.90;62.40
64209;DHT22;50527;52.414;13.226;2022-09-09T13:28:01;22.10;63.00
64209;DHT22;50527;52.414;13.226;2022-09-09T13:30:32;22.20;61.00
64209;DHT22;50527;52.414;13.226;2022-09-09T13:35:57;22.70;59.50
64209;DHT22;50527;52.414;13.226;2022-09-09T13:38:24;23.00;58.30
64209;DHT22;50527;52.414;13.226;2022-09-09T13:41:09;23.00;56.30
64209;DHT22;50527;52.414;13.226;2022-09-09T13:43:44;23.00;56.00
64209;DHT22;50527;52.414;13.226;2022-09-09T13:46:34;22.80;56.40
64209;DHT22;50527;52.414;13.226;2022-09-09T13:49:23;22.70;59.00
64209;DHT22;50527;52.414;13.226;2022-09-09T13:52:04;22.70;59.40
64209;DHT22;50527;52.414;13.226;2022-09-09T13:54:32;22.90;56.60
64209;DHT22;50527;52.414;13.226;2022-09-09T13:56:58;23.20;57.30
64209;DHT22;50527;52.414;13.226;2022-09-09T13:59:23;23.40;57.30
64209;DHT22;50527;52.414;13.226;2022-09-09T14:01:49;23.50;54.90
64209;DHT22;50527;52.414;13.226;2022-09-09T14:04:15;23.40;54.90
64209;DHT22;50527;52.414;13.226;2022-09-09T14:06:41;23.10;55.40
64209;DHT22;50527;52.414;13.226;2022-09-09T14:09:12;22.90;57.10
64209;DHT22;50527;52.414;13.226;2022-09-09T14:11:38;22.60;57.70
64209;DHT22;50527;52.414;13.226;2022-09-09T14:14:04;22.50;58.30
64209;DHT22;50527;52.414;13.226;2022-09-09T14:16:30;22.50;59.00
64209;DHT22;50527;52.414;13.226;2022-09-09T14:18:56;22.50;58.30
64209;DHT22;50527;52.414;13.226;2022-09-09T14:21:23;22.50;58.70
64209;DHT22;50527;52.414;13.226;2022-09-09T14:23:48;22.40;58.10
64209;DHT22;50527;52.414;13.226;2022-09-09T14:26:14;22.40;56.50
64209;DHT22;50527;52.414;13.226;2022-09-09T14:28:40;22.40;57.90
64209;DHT22;50527;52.414;13.226;2022-09-09T14:31:06;22.30;58.00
64209;DHT22;50527;52.414;13.226;2022-09-09T14:33:32;22.20;58.70
64209;DHT22;50527;52.414;13.226;2022-09-09T14:36:03;22.10;59.90
64209;DHT22;50527;52.414;13.226;2022-09-09T14:38:33;22.10;61.10
64209;DHT22;50527;52.414;13.226;2022-09-09T14:41:00;22.00;62.20
64209;DHT22;50527;52.414;13.226;2022-09-09T14:43:27;21.90;62.20
64209;DHT22;50527;52.414;13.226;2022-09-09T14:45:53;21.80;61.70
64209;DHT22;50527;52.414;13.226;2022-09-09T14:48:18;21.80;62.20
64209;DHT22;50527;52.414;13.226;2022-09-09T14:50:44;21.80;63.60
64209;DHT22;50527;52.414;13.226;2022-09-09T14:53:09;21.80;63.40
64209;DHT22;50527;52.414;13.226;2022-09-09T14:55:36;21.80;65.10
64209;DHT22;50527;52.414;13.226;2022-09-09T14:58:02;21.80;63.30
64209;DHT22;50527;52.414;13.226;2022-09-09T15:00:28;21.80;63.00
64209;DHT22;50527;52.414;13.226;2022-09-09T15:02:54;21.80;63.20
64209;DHT22;50527;52.414;13.226;2022-09-09T15:05:20;21.80;63.10
64209;DHT22;50527;52.414;13.226;2022-09-09T15:07:46;21.80;62.80
64209;DHT22;50527;52.414;13.226;2022-09-09T15:10:13;21.80;63.10
64209;DHT22;50527;52.414;13.226;2022-09-09T15:12:39;21.80;63.50
64209;DHT22;50527;52.414;13.226;2022-09-09T15:15:05;21.80;64.50
64209;DHT22;50527;52.414;13.226;2022-09-09T15:17:31;21.80;63.70
64209;DHT22;50527;52.414;13.226;2022-09-09T15:19:57;21.90;63.20
64209;DHT22;50527;52.414;13.226;2022-09-09T15:22:23;22.00;62.40
64209;DHT22;50527;52.414;13.226;2022-09-09T15:24:49;22.00;64.20
64209;DHT22;50527;52.414;13.226;2022-09-09T15:27:15;21.90;62.80
64209;DHT22;50527;52.414;13.226;2022-09-09T15:29:41;21.80;62.70
64209;DHT22;50527;52.414;13.226;2022-09-09T15:32:07;21.80;64.20
64209;DHT22;50527;52.414;13.226;2022-09-09T15:34:33;21.80;63.50
64209;DHT22;50527;52.414;13.226;2022-09-09T15:36:58;21.80;64.00
64209;DHT22;50527;52.414;13.226;2022-09-09T15:39:25;21.80;64.80
64209;DHT22;50527;52.414;13.226;2022-09-09T15:41:51;21.80;65.70
64209;DHT22;50527;52.414;13.226;2022-09-09T15:44:16;21.80;64.70
64209;DHT22;50527;52.414;13.226;2022-09-09T15:46:51;21.90;62.60
64209;DHT22;50527;52.414;13.226;2022-09-09T15:49:21;22.00;62.50
64209;DHT22;50527;52.414;13.226;2022-09-09T15:51:55;22.00;63.20
64209;DHT22;50527;52.414;13.226;2022-09-09T15:54:22;22.10;61.50
64209;DHT22;50527;52.414;13.226;2022-09-09T15:56:56;22.10;61.90
64209;DHT22;50527;52.414;13.226;2022-09-09T15:59:22;22.10;64.30
64209;DHT22;50527;52.414;13.226;2022-09-09T16:01:48;22.00;63.00
64209;DHT22;50527;52.414;13.226;2022-09-09T16:04:17;21.90;60.30
64209;DHT22;50527;52.414;13.226;2022-09-09T16:06:58;21.80;59.90
64209;DHT22;50527;52.414;13.226;2022-09-09T16:09:24;21.80;59.20
64209;DHT22;50527;52.414;13.226;2022-09-09T16:11:49;21.70;61.50
64209;DHT22;50527;52.414;13.226;2022-09-09T16:14:15;21.60;61.70
64209;DHT22;50527;52.414;13.226;2022-09-09T16:16:41;21.50;61.90
64209;DHT22;50527;52.414;13.226;2022-09-09T16:19:09;21.40;62.70
64209;DHT22;50527;52.414;13.226;2022-09-09T16:21:46;21.40;64.00
64209;DHT22;50527;52.414;13.226;2022-09-09T16:24:14;21.30;66.40
64209;DHT22;50527;52.414;13.226;2022-09-09T16:26:43;21.20;65.20
64209;DHT22;50527;52.414;13.226;2022-09-09T16:29:11;21.20;65.00
64209;DHT22;50527;52.414;13.226;2022-09-09T16:31:37;21.10;65.90
64209;DHT22;50527;52.414;13.226;2022-09-09T16:34:03;21.00;67.00
64209;DHT22;50527;52.414;13.226;2022-09-09T16:36:30;21.00;68.00
64209;DHT22;50527;52.414;13.226;2022-09-09T16:39:01;20.90;66.80
64209;DHT22;50527;52.414;13.226;2022-09-09T16:41:28;20.90;67.30
64209;DHT22;50527;52.414;13.226;2022-09-09T16:43:56;20.80;67.60
64209;DHT22;50527;52.414;13.226;2022-09-09T16:46:22;20.80;68.40
64209;DHT22;50527;52.414;13.226;2022-09-09T16:48:49;20.80;69.70
64209;DHT22;50527;52.414;13.226;2022-09-09T16:51:21;20.70;71.40
64209;DHT22;50527;52.414;13.226;2022-09-09T16:53:48;20.70;70.70
64209;DHT22;50527;52.414;13.226;2022-09-09T16:56:20;20.60;71.80
64209;DHT22;50527;52.414;13.226;2022-09-09T16:58:51;20.50;73.30
64209;DHT22;50527;52.414;13.226;2022-09-09T17:01:17;20.50;75.00
64209;DHT22;50527;52.414;13.226;2022-09-09T17:03:42;20.40;76.90
64209;DHT22;50527;52.414;13.226;2022-09-09T17:06:12;20.30;80.10
64209;DHT22;50527;52.414;13.226;2022-09-09T17:08:39;20.20;80.90